createdAt,value
2022-12-23T00:01:21.705Z,15.93
2022-12-23T00:03:48.436Z,13.75
2022-12-23T00:06:17.337Z,14.27
2022-12-23T00:08:44.534Z,14.90
2022-12-23T00:11:17.803Z,15.55
2022-12-23T00:14:03.564Z,16.23
2022-12-23T00:16:30.234Z,15.70
2022-12-23T00:18:56.644Z,15.30
2022-12-23T00:21:23.448Z,14.65
2022-12-23T00:23:51.284Z,13.65
2022-12-23T00:26:21.549Z,14.18
2022-12-23T00:28:48.240Z,15.38
2022-12-23T00:31:15.468Z,13.82
2022-12-23T00:33:44.413Z,14.48
2022-12-23T00:36:13.524Z,14.45
2022-12-23T00:38:58.706Z,14.90
2022-12-23T00:41:43.884Z,14.73
2022-12-23T00:44:10.247Z,13.45
2022-12-23T00:46:37.082Z,13.35
2022-12-23T00:49:22.027Z,13.38
2022-12-23T00:51:48.396Z,14.35
2022-12-23T00:54:14.997Z,14.38
2022-12-23T00:56:41.397Z,12.63
2022-12-23T00:59:07.794Z,13.18
2022-12-23T01:01:53.016Z,13.15
2022-12-23T01:04:38.263Z,14.48
2022-12-23T01:07:05.940Z,11.90
2022-12-23T01:09:32.681Z,11.60
2022-12-23T01:11:59.092Z,13.63
2022-12-23T01:14:26.134Z,12.60
2022-12-23T01:16:52.549Z,10.93
2022-12-23T01:19:19.000Z,11.48
2022-12-23T01:21:45.477Z,12.70
2022-12-23T01:24:12.163Z,13.00
2022-12-23T01:26:38.674Z,11.25
2022-12-23T01:29:05.044Z,9.60
2022-12-23T01:31:31.776Z,10.48
2022-12-23T01:33:58.191Z,11.57
2022-12-23T01:36:24.808Z,11.15
2022-12-23T01:38:52.035Z,10.80
2022-12-23T01:41:46.486Z,10.68
2022-12-23T01:44:51.292Z,10.25
2022-12-23T01:47:26.872Z,10.50
2022-12-23T01:50:22.229Z,9.43
2022-12-23T01:53:00.486Z,12.15
2022-12-23T01:55:35.487Z,12.05
2022-12-23T01:58:25.476Z,11.23
2022-12-23T02:01:11.614Z,11.40
2022-12-23T02:03:44.321Z,9.07
2022-12-23T02:06:43.898Z,10.02
2022-12-23T02:09:18.986Z,10.68
2022-12-23T02:12:07.322Z,10.82
2022-12-23T02:15:08.006Z,10.80
2022-12-23T02:17:50.289Z,11.07
2022-12-23T02:21:04.559Z,11.60
2022-12-23T02:23:48.675Z,11.30
2022-12-23T02:26:28.393Z,12.02
2022-12-23T02:29:21.673Z,12.82
2022-12-23T02:31:54.201Z,10.65
2022-12-23T02:34:28.900Z,11.15
2022-12-23T02:37:05.912Z,12.02
2022-12-23T02:39:58.694Z,11.18
2022-12-23T02:42:40.860Z,11.75
2022-12-23T02:45:17.772Z,9.95
2022-12-23T02:47:55.946Z,10.35
2022-12-23T02:50:31.290Z,9.55
2022-12-23T02:53:10.921Z,9.60
2022-12-23T02:55:41.891Z,10.18
2022-12-23T02:58:13.393Z,10.15
2022-12-23T03:00:42.952Z,7.63
2022-12-23T03:03:10.032Z,6.93
2022-12-23T03:05:40.478Z,8.48
2022-12-23T03:08:13.790Z,5.05
2022-12-23T03:10:57.199Z,5.75
2022-12-23T03:14:01.078Z,5.38
2022-12-23T03:16:44.323Z,4.90
2022-12-23T03:19:29.921Z,5.57
2022-12-23T03:22:21.607Z,5.32
2022-12-23T03:25:00.811Z,3.80
2022-12-23T03:27:34.045Z,2.70
2022-12-23T03:30:06.104Z,3.05
2022-12-23T03:32:39.614Z,2.25
2022-12-23T03:35:09.136Z,3.45
2022-12-23T03:37:38.648Z,3.63
2022-12-23T03:40:10.279Z,2.22
2022-12-23T03:42:40.611Z,3.00
2022-12-23T03:45:39.830Z,2.42
2022-12-23T03:48:27.073Z,1.55
2022-12-23T03:51:01.249Z,2.17
2022-12-23T03:53:35.175Z,2.30
2022-12-23T03:56:07.664Z,0.73
2022-12-23T03:58:40.553Z,2.90
2022-12-23T04:01:31.867Z,1.45
2022-12-23T04:04:17.226Z,2.28
2022-12-23T04:06:51.875Z,1.08
2022-12-23T04:09:22.399Z,1.85
2022-12-23T04:11:49.523Z,1.42
2022-12-23T04:14:21.354Z,2.15
2022-12-23T04:16:53.148Z,0.90
2022-12-23T04:19:19.551Z,2.17
2022-12-23T04:21:46.157Z,2.00
2022-12-23T04:24:12.574Z,2.90
2022-12-23T04:26:38.935Z,0.65
2022-12-23T04:29:05.378Z,1.40
2022-12-23T04:31:31.927Z,2.25
2022-12-23T04:33:58.708Z,1.50
2022-12-23T04:36:25.121Z,0.70
2022-12-23T04:38:51.558Z,1.20
2022-12-23T04:41:17.916Z,1.10
2022-12-23T04:43:49.299Z,2.13
2022-12-23T04:46:19.432Z,0.93
2022-12-23T04:48:46.019Z,1.50
2022-12-23T04:51:12.456Z,0.90
2022-12-23T04:53:39.105Z,1.05
2022-12-23T04:56:05.631Z,1.08
2022-12-23T04:58:32.081Z,0.93
2022-12-23T05:01:07.872Z,1.52
2022-12-23T05:03:34.803Z,0.75
2022-12-23T05:06:01.409Z,0.60
2022-12-23T05:08:28.198Z,1.25
2022-12-23T05:10:54.772Z,1.00
2022-12-23T05:13:21.766Z,0.75
2022-12-23T05:15:53.337Z,1.90
2022-12-23T05:18:20.674Z,1.08
2022-12-23T05:20:47.451Z,0.80
2022-12-23T05:23:13.905Z,0.65
2022-12-23T05:25:40.384Z,1.38
2022-12-23T05:28:09.443Z,0.63
2022-12-23T05:30:35.838Z,0.80
2022-12-23T05:33:02.365Z,0.95
2022-12-23T05:35:28.749Z,1.98
2022-12-23T05:37:55.129Z,1.23
2022-12-23T05:40:23.717Z,1.48
2022-12-23T05:42:55.745Z,2.15
2022-12-23T05:45:22.403Z,1.10
2022-12-23T05:47:48.904Z,1.75
2022-12-23T05:50:15.378Z,1.55
2022-12-23T05:52:41.750Z,1.10
2022-12-23T05:55:08.822Z,0.70
2022-12-23T05:57:35.530Z,2.05
2022-12-23T06:00:03.867Z,0.95
2022-12-23T06:02:30.446Z,1.20
2022-12-23T06:04:57.296Z,1.17
2022-12-23T06:07:23.756Z,1.33
2022-12-23T06:09:50.283Z,0.70
2022-12-23T06:12:16.675Z,1.23
2022-12-23T06:14:43.169Z,2.35
2022-12-23T06:17:09.867Z,1.17
2022-12-23T06:19:36.224Z,1.10
2022-12-23T06:22:02.569Z,1.02
2022-12-23T06:24:28.956Z,1.58
2022-12-23T06:26:57.405Z,1.63
2022-12-23T06:29:24.909Z,2.13
2022-12-23T06:31:51.641Z,0.93
2022-12-23T06:34:18.133Z,3.13
2022-12-23T06:36:44.823Z,1.02
2022-12-23T06:39:11.661Z,1.25
2022-12-23T06:41:38.150Z,1.42
2022-12-23T06:44:04.767Z,1.08
2022-12-23T06:46:31.413Z,0.85
2022-12-23T06:48:57.877Z,1.20
2022-12-23T06:51:24.319Z,1.42
2022-12-23T06:53:50.719Z,1.25
2022-12-23T06:56:18.548Z,1.35
2022-12-23T06:58:44.925Z,2.17
2022-12-23T07:01:11.713Z,1.33
2022-12-23T07:03:38.148Z,2.35
2022-12-23T07:06:04.773Z,5.20
2022-12-23T07:08:31.285Z,1.40
2022-12-23T07:10:59.445Z,1.63
2022-12-23T07:13:26.143Z,2.00
2022-12-23T07:15:52.501Z,2.00
2022-12-23T07:18:18.940Z,1.55
2022-12-23T07:20:45.292Z,1.30
2022-12-23T07:23:11.860Z,1.98
2022-12-23T07:25:38.206Z,1.45
2022-12-23T07:28:04.777Z,2.10
2022-12-23T07:30:31.215Z,1.75
2022-12-23T07:32:57.784Z,1.90
2022-12-23T07:35:24.150Z,2.10
2022-12-23T07:37:55.578Z,2.03
2022-12-23T07:40:23.087Z,2.30
2022-12-23T07:42:50.342Z,2.05
2022-12-23T07:45:17.075Z,1.63
2022-12-23T07:47:43.505Z,3.95
2022-12-23T07:50:10.059Z,22.85
2022-12-23T07:52:36.842Z,3.35
2022-12-23T07:55:03.595Z,1.23
2022-12-23T07:57:30.191Z,3.25
2022-12-23T07:59:56.810Z,2.97
2022-12-23T08:02:25.231Z,3.08
2022-12-23T08:04:52.005Z,2.45
2022-12-23T08:07:18.521Z,2.22
2022-12-23T08:09:44.960Z,2.60
2022-12-23T08:12:11.329Z,1.80
2022-12-23T08:14:37.715Z,3.08
2022-12-23T08:17:04.101Z,10.98
2022-12-23T08:19:30.819Z,5.72
2022-12-23T08:21:57.217Z,1.15
2022-12-23T08:24:23.594Z,1.73
2022-12-23T08:26:50.095Z,1.70
2022-12-23T08:29:16.709Z,1.13
2022-12-23T08:31:43.084Z,2.40
2022-12-23T08:34:10.489Z,1.85
2022-12-23T08:36:37.020Z,0.70
2022-12-23T08:39:07.968Z,0.80
2022-12-23T08:41:40.150Z,2.17
2022-12-23T08:44:06.908Z,2.83
2022-12-23T08:46:34.635Z,1.73
2022-12-23T08:49:01.245Z,2.38
2022-12-23T08:51:27.996Z,1.13
2022-12-23T08:54:00.517Z,0.90
2022-12-23T08:56:33.237Z,1.45
2022-12-23T08:59:00.398Z,2.35
2022-12-23T09:01:29.271Z,1.88
2022-12-23T09:03:56.565Z,2.17
2022-12-23T09:06:29.553Z,4.10
2022-12-23T09:08:56.972Z,1.65
2022-12-23T09:11:25.638Z,1.70
2022-12-23T09:13:53.396Z,2.28
2022-12-23T09:16:20.247Z,1.65
2022-12-23T09:18:46.859Z,2.28
2022-12-23T09:21:16.353Z,1.05
2022-12-23T09:26:10.798Z,2.03
2022-12-23T09:28:37.328Z,1.83
2022-12-23T09:31:08.690Z,0.85
2022-12-23T09:33:35.604Z,1.17
2022-12-23T09:36:03.230Z,1.52
2022-12-23T09:38:29.989Z,1.60
2022-12-23T09:41:03.729Z,1.63
2022-12-23T09:43:53.915Z,1.60
2022-12-23T09:46:23.519Z,2.72
2022-12-23T09:48:59.464Z,2.22
2022-12-23T09:51:26.132Z,0.75
2022-12-23T09:54:16.895Z,1.73
2022-12-23T09:56:58.518Z,1.48
2022-12-23T09:59:51.103Z,1.70
2022-12-23T10:02:45.404Z,1.15
2022-12-23T10:05:47.476Z,3.00
2022-12-23T10:08:38.237Z,3.97
2022-12-23T10:11:28.066Z,2.35
2022-12-23T10:14:03.195Z,1.65
2022-12-23T10:16:38.497Z,2.17
2022-12-23T10:19:28.654Z,1.45
2022-12-23T10:22:02.240Z,1.10
2022-12-23T10:24:37.951Z,1.95
2022-12-23T10:29:40.723Z,2.28
2022-12-23T10:32:20.300Z,2.08
2022-12-23T10:35:01.086Z,1.88
2022-12-23T10:37:33.226Z,1.77
2022-12-23T10:40:11.907Z,1.50
2022-12-23T10:42:58.566Z,1.98
2022-12-23T10:45:46.173Z,1.83
2022-12-23T10:48:54.952Z,1.75
2022-12-23T10:51:28.614Z,2.20
2022-12-23T10:54:09.722Z,1.65
2022-12-23T10:56:36.366Z,1.45
2022-12-23T10:59:03.546Z,1.40
2022-12-23T11:01:31.492Z,2.33
2022-12-23T11:04:14.264Z,2.08
2022-12-23T11:06:44.413Z,1.85
2022-12-23T11:09:41.787Z,2.75
2022-12-23T11:12:10.684Z,2.78
2022-12-23T11:14:55.036Z,1.77
2022-12-23T11:17:29.903Z,1.98
2022-12-23T11:20:11.371Z,1.63
2022-12-23T11:22:52.083Z,2.03
2022-12-23T11:25:24.895Z,2.20
2022-12-23T11:27:56.078Z,1.70
2022-12-23T11:30:22.548Z,2.72
2022-12-23T11:32:50.283Z,2.33
2022-12-23T11:35:27.882Z,2.03
2022-12-23T11:37:55.575Z,3.72
2022-12-23T11:40:38.259Z,2.47
2022-12-23T11:43:11.631Z,2.80
2022-12-23T11:45:38.321Z,2.40
2022-12-23T11:48:06.696Z,2.50
2022-12-23T11:50:37.620Z,2.83
2022-12-23T11:53:10.913Z,1.67
2022-12-23T11:55:48.706Z,2.08
2022-12-23T11:58:21.022Z,2.15
2022-12-23T12:00:56.089Z,2.28
2022-12-23T12:03:28.135Z,2.35
2022-12-23T12:06:06.646Z,2.15
2022-12-23T12:08:37.418Z,1.90
2022-12-23T12:11:16.733Z,2.13
2022-12-23T12:13:47.532Z,3.08
2022-12-23T12:16:23.635Z,2.63
2022-12-23T12:18:55.520Z,1.98
2022-12-23T12:21:31.201Z,3.17
2022-12-23T12:24:18.273Z,2.95
2022-12-23T12:26:59.967Z,2.10
2022-12-23T12:29:41.522Z,2.10
2022-12-23T12:32:19.149Z,2.10
2022-12-23T12:34:57.065Z,1.92
2022-12-23T12:37:38.017Z,2.00
2022-12-23T12:40:34.982Z,1.88
2022-12-23T12:43:15.619Z,2.00
2022-12-23T12:45:50.276Z,2.55
2022-12-23T12:48:29.535Z,1.63
2022-12-23T12:51:33.629Z,2.78
2022-12-23T12:54:06.665Z,3.78
2022-12-23T12:56:53.932Z,1.90
2022-12-23T12:59:24.801Z,3.25
2022-12-23T13:02:20.281Z,2.15
2022-12-23T13:05:11.619Z,3.40
2022-12-23T13:07:55.213Z,3.15
2022-12-23T13:10:57.230Z,2.35
2022-12-23T13:13:29.693Z,2.67
2022-12-23T13:16:07.091Z,2.38
2022-12-23T13:18:38.884Z,2.22
2022-12-23T13:21:16.347Z,3.15
2022-12-23T13:24:03.851Z,2.70
2022-12-23T13:29:34.592Z,3.65
2022-12-23T13:32:11.256Z,2.10
2022-12-23T13:35:08.770Z,4.28
2022-12-23T13:37:59.876Z,2.72
2022-12-23T13:40:49.485Z,3.08
2022-12-23T13:43:20.433Z,2.35
2022-12-23T13:45:47.802Z,2.20
2022-12-23T13:48:37.087Z,4.57
2022-12-23T13:51:15.143Z,10.45
2022-12-23T13:54:05.733Z,2.92
2022-12-23T13:57:07.935Z,3.47
2022-12-23T13:59:40.291Z,2.42
2022-12-23T14:02:37.718Z,2.88
2022-12-23T14:05:08.321Z,3.47
2022-12-23T14:07:37.174Z,4.10
2022-12-23T14:10:21.989Z,4.03
2022-12-23T14:12:50.436Z,5.13
2022-12-23T14:15:42.562Z,5.88
2022-12-23T14:18:14.922Z,4.50
2022-12-23T14:20:51.712Z,3.42
2022-12-23T14:23:46.115Z,2.22
2022-12-23T14:26:24.711Z,4.13
2022-12-23T14:29:12.781Z,4.75
2022-12-23T14:34:17.716Z,3.22
2022-12-23T14:37:16.616Z,3.40
2022-12-23T14:39:43.784Z,3.25
2022-12-23T14:42:16.336Z,3.50
2022-12-23T14:44:46.332Z,3.45
2022-12-23T14:47:36.540Z,4.32
2022-12-23T14:50:42.534Z,3.42
2022-12-23T14:53:25.327Z,3.53
2022-12-23T14:56:12.006Z,5.47
2022-12-23T14:58:53.841Z,4.80
2022-12-23T15:04:01.518Z,20.23
2022-12-23T15:06:35.265Z,6.05
2022-12-23T15:09:02.593Z,3.88
2022-12-23T15:11:31.539Z,3.75
2022-12-23T15:14:01.488Z,3.70
2022-12-23T15:16:35.026Z,3.22
2022-12-23T15:19:16.592Z,4.50
2022-12-23T15:21:46.208Z,4.82
2022-12-23T15:24:20.278Z,4.22
2022-12-23T15:27:24.544Z,4.00
2022-12-23T15:29:43.454Z,4.55
2022-12-23T15:32:10.934Z,4.85
2022-12-23T15:34:37.688Z,4.20
2022-12-23T15:37:10.725Z,3.47
2022-12-23T15:39:40.651Z,3.75
2022-12-23T15:42:21.543Z,3.50
2022-12-23T15:44:47.887Z,3.22
2022-12-23T15:47:29.872Z,4.03
2022-12-23T15:49:58.826Z,3.83
2022-12-23T15:52:27.078Z,4.30
2022-12-23T15:55:01.745Z,4.05
2022-12-23T15:57:30.166Z,3.55
2022-12-23T15:59:58.580Z,4.20
2022-12-23T16:05:32.936Z,5.10
2022-12-23T16:08:11.693Z,5.03
2022-12-23T16:10:39.086Z,4.82
2022-12-23T16:13:16.358Z,4.35
2022-12-23T16:15:42.763Z,3.75
2022-12-23T16:18:32.660Z,5.03
2022-12-23T16:21:02.703Z,4.22
2022-12-23T16:23:30.781Z,4.05
2022-12-23T16:26:13.651Z,5.22
2022-12-23T16:28:42.951Z,5.38
2022-12-23T16:31:10.469Z,20.25
2022-12-23T16:34:11.623Z,13.40
2022-12-23T16:36:38.115Z,6.07
2022-12-23T16:39:07.280Z,5.65
2022-12-23T16:41:34.742Z,3.92
2022-12-23T16:44:01.479Z,4.40
2022-12-23T16:46:31.756Z,3.70
2022-12-23T16:49:00.899Z,4.80
2022-12-23T16:51:30.183Z,3.75
2022-12-23T16:53:57.514Z,3.83
2022-12-23T16:56:28.360Z,4.50
2022-12-23T16:58:54.723Z,6.35
2022-12-23T17:01:23.148Z,4.72
2022-12-23T17:03:50.157Z,5.40
2022-12-23T17:06:17.213Z,5.28
2022-12-23T17:08:43.843Z,5.03
2022-12-23T17:11:19.496Z,6.43
2022-12-23T17:16:21.436Z,4.93
2022-12-23T17:21:21.383Z,5.53
2022-12-23T17:23:48.438Z,5.95
2022-12-23T17:26:14.800Z,59.10
2022-12-23T17:28:41.325Z,20.95
2022-12-23T17:31:13.942Z,6.90
2022-12-23T17:33:42.183Z,5.35
2022-12-23T17:36:10.963Z,6.63
2022-12-23T17:38:37.416Z,4.90
2022-12-23T17:41:04.248Z,5.25
2022-12-23T17:43:30.671Z,43.38
2022-12-23T17:45:57.242Z,21.95
2022-12-23T17:48:29.591Z,7.22
2022-12-23T17:50:57.958Z,8.93
2022-12-23T17:53:24.334Z,8.98
2022-12-23T17:55:50.775Z,10.63
2022-12-23T17:58:17.125Z,10.32
2022-12-23T18:00:43.570Z,14.63
2022-12-23T18:03:23.176Z,11.38
2022-12-23T18:05:52.975Z,10.90
2022-12-23T18:08:23.704Z,11.45
2022-12-23T18:10:50.178Z,14.32
2022-12-23T18:13:19.373Z,13.20
2022-12-23T18:15:46.365Z,12.00
2022-12-23T18:18:24.406Z,12.05
2022-12-23T18:20:57.233Z,12.45
2022-12-23T18:23:27.334Z,11.02
2022-12-23T18:25:54.425Z,13.15
2022-12-23T18:28:21.165Z,13.05
2022-12-23T18:30:47.595Z,15.23
2022-12-23T18:33:14.110Z,13.68
2022-12-23T18:35:45.854Z,12.32
2022-12-23T18:38:12.615Z,14.40
2022-12-23T18:40:40.141Z,14.85
2022-12-23T18:43:06.891Z,13.25
2022-12-23T18:45:38.338Z,21.80
2022-12-23T18:48:07.202Z,17.05
2022-12-23T18:50:35.960Z,12.90
2022-12-23T18:53:02.964Z,14.68
2022-12-23T18:55:32.921Z,92.35
2022-12-23T18:58:01.051Z,100.75
2022-12-23T19:00:30.516Z,41.70
2022-12-23T19:02:57.722Z,16.13
2022-12-23T19:05:29.529Z,16.10
2022-12-23T19:07:58.374Z,19.27
2022-12-23T19:10:30.514Z,15.73
2022-12-23T19:12:56.987Z,16.38
2022-12-23T19:15:23.619Z,15.50
2022-12-23T19:17:50.570Z,16.50
2022-12-23T19:20:18.564Z,17.65
2022-12-23T19:22:45.642Z,16.10
2022-12-23T19:25:14.860Z,17.88
2022-12-23T19:27:42.169Z,18.13
2022-12-23T19:30:12.440Z,27.63
2022-12-23T19:32:38.833Z,18.95
2022-12-23T19:35:05.517Z,40.92
2022-12-23T19:37:32.477Z,23.33
2022-12-23T19:39:59.811Z,20.15
2022-12-23T19:42:26.170Z,17.98
2022-12-23T19:44:52.598Z,18.60
2022-12-23T19:47:19.119Z,17.83
2022-12-23T19:49:45.502Z,19.52
2022-12-23T19:52:11.940Z,19.38
2022-12-23T19:54:38.311Z,20.63
2022-12-23T19:57:04.674Z,22.75
2022-12-23T19:59:31.360Z,18.60
2022-12-23T20:01:57.850Z,19.65
2022-12-23T20:04:24.958Z,20.27
2022-12-23T20:06:51.588Z,19.65
2022-12-23T20:09:18.495Z,24.13
2022-12-23T20:11:47.282Z,25.13
2022-12-23T20:14:16.103Z,26.15
2022-12-23T20:16:42.699Z,25.55
2022-12-23T20:19:09.074Z,28.05
2022-12-23T20:21:37.440Z,17.17
2022-12-23T20:24:05.744Z,17.88
2022-12-23T20:26:32.333Z,18.13
2022-12-23T20:28:59.576Z,18.13
2022-12-23T20:31:28.541Z,38.05
2022-12-23T20:33:56.089Z,21.40
2022-12-23T20:36:27.718Z,15.65
2022-12-23T20:38:57.196Z,15.98
2022-12-23T20:41:27.502Z,14.52
2022-12-23T20:44:31.617Z,17.83
2022-12-23T20:46:41.278Z,16.10
2022-12-23T20:49:07.709Z,18.17
2022-12-23T20:51:34.085Z,19.27
2022-12-23T20:54:00.920Z,16.27
2022-12-23T20:56:29.111Z,15.57
2022-12-23T20:58:57.668Z,18.30
2022-12-23T21:01:37.704Z,15.50
2022-12-23T21:04:06.809Z,16.27
2022-12-23T21:06:33.862Z,16.00
2022-12-23T21:09:01.734Z,14.82
2022-12-23T21:11:29.799Z,16.70
2022-12-23T21:14:01.175Z,15.52
2022-12-23T21:16:31.245Z,16.92
2022-12-23T21:18:58.147Z,17.02
2022-12-23T21:21:26.663Z,16.25
2022-12-23T21:23:58.777Z,16.25
2022-12-23T21:26:27.144Z,17.85
2022-12-23T21:28:55.056Z,19.95
2022-12-23T21:31:23.608Z,18.77
2022-12-23T21:33:51.666Z,17.67
2022-12-23T21:36:21.093Z,18.40
2022-12-23T21:38:49.421Z,18.48
2022-12-23T21:41:21.719Z,19.67
2022-12-23T21:43:49.581Z,17.67
2022-12-23T21:46:19.018Z,18.50
2022-12-23T21:48:47.275Z,15.35
2022-12-23T21:51:17.480Z,13.90
2022-12-23T21:53:45.699Z,14.55
2022-12-23T21:56:15.158Z,13.30
2022-12-23T21:58:42.043Z,14.48
2022-12-23T22:01:18.730Z,13.80
2022-12-23T22:03:47.443Z,12.73
2022-12-23T22:06:19.802Z,13.68
2022-12-23T22:08:46.526Z,12.65
2022-12-23T22:11:15.692Z,12.63
2022-12-23T22:13:42.475Z,14.43
2022-12-23T22:16:10.980Z,12.40
2022-12-23T22:18:38.261Z,14.18
2022-12-23T22:21:06.385Z,15.40
2022-12-23T22:23:33.055Z,15.15
2022-12-23T22:25:59.503Z,12.50
2022-12-23T22:28:25.996Z,22.63
2022-12-23T22:30:52.395Z,33.53
2022-12-23T22:33:18.872Z,11.98
2022-12-23T22:35:54.553Z,9.65
2022-12-23T22:38:22.203Z,13.35
2022-12-23T22:40:52.678Z,13.32
2022-12-23T22:43:20.144Z,11.50
2022-12-23T22:45:46.803Z,6.55
2022-12-23T22:48:13.757Z,2.83
2022-12-23T22:50:40.228Z,1.00
2022-12-23T22:53:06.825Z,0.90
2022-12-23T22:55:33.318Z,2.50
2022-12-23T22:57:59.743Z,1.38
2022-12-23T23:00:26.352Z,3.33
2022-12-23T23:02:52.699Z,1.85
2022-12-23T23:05:19.662Z,4.15
2022-12-23T23:07:46.084Z,2.08
2022-12-23T23:10:12.633Z,1.77
2022-12-23T23:12:39.086Z,3.22
2022-12-23T23:15:05.837Z,1.48
2022-12-23T23:17:32.442Z,1.23
2022-12-23T23:19:59.107Z,1.23
2022-12-23T23:22:25.547Z,1.98
2022-12-23T23:24:52.264Z,1.85
2022-12-23T23:27:19.044Z,2.63
2022-12-23T23:29:48.603Z,2.25
2022-12-23T23:34:42.178Z,1.55
2022-12-23T23:37:08.583Z,1.98
2022-12-23T23:39:34.967Z,2.67
2022-12-23T23:42:01.439Z,2.00
2022-12-23T23:44:27.890Z,2.05
2022-12-23T23:46:54.236Z,2.60
2022-12-23T23:49:21.585Z,2.88
2022-12-23T23:51:47.967Z,3.65
2022-12-23T23:54:14.382Z,2.38
2022-12-23T23:56:40.771Z,5.38
2022-12-23T23:59:08.938Z,2.38
